createdAt,value
2022-12-05T00:01:35.509Z,1.60
2022-12-05T00:04:05.392Z,1.60
2022-12-05T00:06:33.862Z,1.50
2022-12-05T00:09:03.149Z,1.60
2022-12-05T00:11:32.692Z,1.60
2022-12-05T00:14:01.294Z,1.50
2022-12-05T00:16:30.338Z,1.60
2022-12-05T00:18:59.875Z,1.60
2022-12-05T00:21:31.738Z,1.60
2022-12-05T00:23:59.625Z,1.60
2022-12-05T00:26:26.879Z,1.60
2022-12-05T00:28:54.954Z,1.60
2022-12-05T00:31:24.959Z,1.60
2022-12-05T00:33:52.429Z,1.60
2022-12-05T00:36:27.384Z,1.60
2022-12-05T00:38:55.289Z,1.60
2022-12-05T00:41:25.074Z,1.60
2022-12-05T00:43:52.511Z,1.60
2022-12-05T00:46:22.152Z,1.60
2022-12-05T00:48:49.260Z,1.60
2022-12-05T00:51:19.414Z,1.60
2022-12-05T00:53:48.075Z,1.50
2022-12-05T00:56:18.054Z,1.50
2022-12-05T00:58:44.827Z,1.50
2022-12-05T01:01:13.347Z,1.50
2022-12-05T01:03:40.568Z,1.40
2022-12-05T01:06:08.273Z,1.50
2022-12-05T01:08:36.162Z,1.40
2022-12-05T01:11:04.585Z,1.40
2022-12-05T01:13:31.717Z,1.40
2022-12-05T01:15:58.947Z,1.40
2022-12-05T01:18:26.587Z,1.40
2022-12-05T01:20:53.931Z,1.40
2022-12-05T01:23:22.471Z,1.40
2022-12-05T01:25:51.280Z,1.40
2022-12-05T01:28:18.217Z,1.30
2022-12-05T01:30:47.691Z,1.40
2022-12-05T01:33:15.087Z,1.30
2022-12-05T01:35:42.593Z,1.30
2022-12-05T01:38:12.173Z,1.30
2022-12-05T01:40:39.633Z,1.30
2022-12-05T01:43:14.923Z,1.30
2022-12-05T01:45:44.198Z,1.30
2022-12-05T01:48:19.286Z,1.30
2022-12-05T01:50:48.660Z,1.30
2022-12-05T01:53:16.814Z,1.30
2022-12-05T01:55:45.458Z,1.30
2022-12-05T01:58:12.228Z,1.20
2022-12-05T02:00:42.262Z,1.20
2022-12-05T02:03:14.144Z,1.10
2022-12-05T02:05:41.761Z,1.10
2022-12-05T02:08:11.215Z,1.10
2022-12-05T02:10:45.626Z,1.00
2022-12-05T02:13:30.315Z,1.00
2022-12-05T02:16:24.319Z,1.00
2022-12-05T02:19:23.173Z,0.90
2022-12-05T02:22:11.003Z,0.90
2022-12-05T02:24:56.201Z,0.90
2022-12-05T02:27:34.257Z,0.90
2022-12-05T02:30:07.074Z,0.80
2022-12-05T02:33:00.289Z,0.80
2022-12-05T02:35:42.387Z,0.80
2022-12-05T02:38:21.740Z,0.80
2022-12-05T02:41:04.635Z,0.80
2022-12-05T02:43:34.795Z,0.80
2022-12-05T02:46:17.465Z,0.80
2022-12-05T02:48:46.704Z,0.80
2022-12-05T02:51:17.742Z,0.80
2022-12-05T02:53:45.541Z,0.80
2022-12-05T02:56:12.789Z,0.90
2022-12-05T02:58:47.206Z,0.80
2022-12-05T03:01:15.403Z,0.90
2022-12-05T03:03:42.334Z,0.90
2022-12-05T03:06:17.009Z,0.90
2022-12-05T03:09:01.356Z,0.90
2022-12-05T03:11:39.700Z,0.90
2022-12-05T03:14:12.068Z,0.90
2022-12-05T03:16:43.773Z,0.90
2022-12-05T03:19:15.997Z,0.80
2022-12-05T03:21:53.538Z,0.80
2022-12-05T03:24:20.610Z,0.80
2022-12-05T03:27:02.193Z,0.80
2022-12-05T03:29:48.247Z,0.80
2022-12-05T03:32:21.021Z,0.90
2022-12-05T03:35:08.481Z,0.90
2022-12-05T03:37:58.642Z,0.90
2022-12-05T03:40:47.094Z,0.90
2022-12-05T03:43:23.687Z,0.90
2022-12-05T03:45:58.149Z,0.90
2022-12-05T03:48:56.009Z,1.00
2022-12-05T03:51:28.322Z,1.00
2022-12-05T03:54:07.075Z,0.90
2022-12-05T03:56:46.198Z,1.00
2022-12-05T03:59:32.712Z,1.00
2022-12-05T04:02:09.103Z,1.00
2022-12-05T04:04:39.848Z,1.00
2022-12-05T04:07:08.698Z,1.00
2022-12-05T04:10:08.761Z,1.00
2022-12-05T04:12:36.933Z,1.10
2022-12-05T04:15:11.339Z,1.10
2022-12-05T04:17:54.001Z,1.10
2022-12-05T04:20:45.496Z,1.10
2022-12-05T04:23:12.472Z,1.10
2022-12-05T04:26:13.550Z,1.10
2022-12-05T04:28:48.333Z,1.10
2022-12-05T04:31:24.647Z,1.20
2022-12-05T04:34:07.747Z,1.20
2022-12-05T04:36:45.062Z,1.20
2022-12-05T04:39:23.714Z,1.20
2022-12-05T04:42:01.924Z,1.20
2022-12-05T04:44:47.171Z,1.20
2022-12-05T04:47:17.313Z,1.20
2022-12-05T04:49:50.585Z,1.30
2022-12-05T04:52:21.641Z,1.30
2022-12-05T04:55:28.146Z,1.30
2022-12-05T04:58:14.837Z,1.30
2022-12-05T05:01:05.057Z,1.30
2022-12-05T05:03:45.600Z,1.30
2022-12-05T05:06:13.338Z,1.30
2022-12-05T05:08:52.401Z,1.30
2022-12-05T05:11:21.618Z,1.30
2022-12-05T05:13:48.911Z,1.30
2022-12-05T05:16:18.539Z,1.30
2022-12-05T05:18:49.860Z,1.30
2022-12-05T05:21:25.605Z,1.30
2022-12-05T05:23:53.170Z,1.30
2022-12-05T05:26:20.641Z,1.30
2022-12-05T05:28:47.773Z,1.30
2022-12-05T05:31:15.082Z,1.40
2022-12-05T05:33:42.144Z,1.40
2022-12-05T05:36:12.515Z,1.40
2022-12-05T05:38:41.882Z,1.40
2022-12-05T05:41:17.353Z,1.30
2022-12-05T05:43:44.265Z,1.40
2022-12-05T05:46:12.300Z,1.40
2022-12-05T05:48:39.160Z,1.30
2022-12-05T05:51:07.968Z,1.30
2022-12-05T05:53:34.818Z,1.40
2022-12-05T05:56:07.735Z,1.40
2022-12-05T05:58:34.891Z,1.40
2022-12-05T06:01:32.065Z,1.40
2022-12-05T06:03:59.536Z,1.40
2022-12-05T06:06:26.554Z,1.40
2022-12-05T06:08:54.718Z,1.40
2022-12-05T06:11:26.362Z,1.40
2022-12-05T06:13:55.253Z,1.40
2022-12-05T06:16:22.425Z,1.40
2022-12-05T06:18:50.132Z,1.40
2022-12-05T06:21:17.423Z,1.40
2022-12-05T06:23:44.346Z,1.40
2022-12-05T06:26:13.569Z,1.40
2022-12-05T06:28:40.501Z,1.40
2022-12-05T06:31:13.256Z,1.40
2022-12-05T06:33:42.501Z,1.40
2022-12-05T06:36:12.344Z,1.40
2022-12-05T06:38:42.285Z,1.40
2022-12-05T06:41:16.227Z,1.40
2022-12-05T06:43:43.517Z,1.40
2022-12-05T06:46:13.357Z,1.40
2022-12-05T06:48:40.393Z,1.40
2022-12-05T06:51:11.123Z,1.40
2022-12-05T06:53:38.352Z,1.50
2022-12-05T06:56:08.194Z,1.50
2022-12-05T06:58:35.076Z,1.50
2022-12-05T07:01:20.640Z,1.50
2022-12-05T07:03:51.075Z,1.50
2022-12-05T07:06:17.927Z,1.40
2022-12-05T07:08:45.065Z,1.50
2022-12-05T07:11:12.173Z,1.50
2022-12-05T07:13:39.086Z,1.50
2022-12-05T07:16:07.525Z,1.50
2022-12-05T07:18:36.000Z,1.50
2022-12-05T07:21:14.365Z,1.50
2022-12-05T07:23:43.363Z,1.60
2022-12-05T07:26:13.363Z,1.50
2022-12-05T07:28:40.243Z,1.50
2022-12-05T07:31:10.445Z,1.60
2022-12-05T07:33:38.008Z,1.50
2022-12-05T07:36:11.410Z,1.50
2022-12-05T07:38:39.780Z,1.60
2022-12-05T07:41:13.066Z,1.60
2022-12-05T07:43:40.867Z,1.60
2022-12-05T07:46:11.365Z,1.60
2022-12-05T07:48:39.364Z,1.60
2022-12-05T07:51:08.294Z,1.60
2022-12-05T07:53:36.632Z,1.60
2022-12-05T07:56:07.254Z,1.60
2022-12-05T07:58:36.073Z,1.70
2022-12-05T08:01:26.923Z,1.70
2022-12-05T08:03:56.003Z,1.80
2022-12-05T08:06:25.967Z,1.80
2022-12-05T08:08:53.623Z,1.80
2022-12-05T08:11:26.900Z,1.80
2022-12-05T08:13:54.460Z,1.90
2022-12-05T08:16:24.315Z,1.90
2022-12-05T08:18:55.940Z,2.00
2022-12-05T08:21:23.175Z,2.00
2022-12-05T08:23:50.111Z,2.00
2022-12-05T08:26:20.863Z,2.10
2022-12-05T08:28:53.848Z,2.10
2022-12-05T08:31:24.017Z,2.10
2022-12-05T08:33:57.147Z,2.10
2022-12-05T08:36:28.515Z,2.20
2022-12-05T08:39:00.380Z,2.30
2022-12-05T08:41:31.117Z,2.30
2022-12-05T08:44:03.013Z,2.30
2022-12-05T08:46:32.659Z,2.40
2022-12-05T08:48:59.544Z,2.40
2022-12-05T08:51:26.508Z,2.40
2022-12-05T08:53:56.441Z,2.50
2022-12-05T08:56:27.086Z,2.50
2022-12-05T08:59:01.269Z,2.60
2022-12-05T09:01:33.381Z,2.60
2022-12-05T09:04:01.161Z,2.60
2022-12-05T09:06:29.491Z,2.50
2022-12-05T09:09:02.697Z,2.60
2022-12-05T09:11:32.061Z,2.60
2022-12-05T09:13:59.637Z,2.70
2022-12-05T09:16:37.996Z,2.70
2022-12-05T09:19:11.752Z,2.70
2022-12-05T09:21:38.624Z,2.80
2022-12-05T09:24:05.648Z,2.80
2022-12-05T09:26:32.543Z,2.80
2022-12-05T09:28:59.547Z,2.90
2022-12-05T09:31:27.442Z,3.00
2022-12-05T09:33:54.590Z,3.00
2022-12-05T09:36:23.796Z,3.10
2022-12-05T09:38:51.858Z,3.10
2022-12-05T09:41:52.492Z,3.10
2022-12-05T09:44:43.520Z,3.20
2022-12-05T09:47:25.723Z,3.20
2022-12-05T09:50:04.665Z,3.20
2022-12-05T09:52:38.611Z,3.20
2022-12-05T09:55:15.459Z,3.20
2022-12-05T09:57:57.888Z,3.10
2022-12-05T10:00:28.594Z,3.10
2022-12-05T10:03:14.373Z,3.10
2022-12-05T10:05:51.367Z,3.10
2022-12-05T10:08:38.000Z,3.10
2022-12-05T10:11:31.915Z,3.10
2022-12-05T10:14:18.015Z,3.10
2022-12-05T10:16:55.431Z,3.20
2022-12-05T10:19:34.320Z,3.20
2022-12-05T10:22:20.212Z,3.20
2022-12-05T10:25:01.489Z,3.30
2022-12-05T10:27:39.999Z,3.30
2022-12-05T10:30:17.936Z,3.40
2022-12-05T10:32:51.119Z,3.50
2022-12-05T10:35:37.122Z,3.50
2022-12-05T10:38:07.512Z,3.50
2022-12-05T10:40:41.472Z,3.60
2022-12-05T10:43:13.204Z,3.60
2022-12-05T10:45:44.368Z,3.70
2022-12-05T10:48:13.693Z,3.70
2022-12-05T10:50:42.734Z,3.80
2022-12-05T10:53:16.208Z,3.80
2022-12-05T10:56:06.331Z,3.90
2022-12-05T10:58:33.671Z,3.90
2022-12-05T11:01:14.097Z,3.90
2022-12-05T11:03:43.404Z,3.90
2022-12-05T11:06:16.136Z,3.80
2022-12-05T11:09:06.613Z,3.90
2022-12-05T11:11:34.043Z,3.80
2022-12-05T11:14:21.507Z,3.90
2022-12-05T11:16:57.793Z,3.80
2022-12-05T11:19:32.533Z,3.90
2022-12-05T11:22:00.446Z,3.90
2022-12-05T11:24:37.717Z,3.90
2022-12-05T11:27:16.468Z,3.90
2022-12-05T11:29:45.541Z,3.90
2022-12-05T11:32:21.723Z,3.90
2022-12-05T11:35:07.707Z,3.90
2022-12-05T11:37:46.060Z,3.90
2022-12-05T11:40:28.415Z,3.90
2022-12-05T11:43:09.987Z,3.80
2022-12-05T11:45:47.090Z,3.80
2022-12-05T11:48:17.635Z,3.80
2022-12-05T11:51:08.298Z,3.80
2022-12-05T11:54:13.571Z,3.80
2022-12-05T11:56:53.383Z,3.80
2022-12-05T11:59:28.962Z,3.80
2022-12-05T12:02:27.287Z,3.80
2022-12-05T12:05:15.729Z,3.80
2022-12-05T12:08:09.708Z,3.80
2022-12-05T12:10:46.584Z,3.90
2022-12-05T12:13:35.597Z,3.80
2022-12-05T12:16:15.863Z,3.80
2022-12-05T12:19:05.452Z,3.80
2022-12-05T12:22:00.868Z,3.80
2022-12-05T12:24:58.059Z,3.80
2022-12-05T12:27:49.374Z,3.90
2022-12-05T12:30:27.802Z,3.90
2022-12-05T12:33:13.804Z,3.90
2022-12-05T12:35:43.788Z,3.90
2022-12-05T12:38:21.967Z,3.90
2022-12-05T12:40:54.707Z,3.90
2022-12-05T12:43:53.131Z,3.90
2022-12-05T12:46:45.896Z,3.90
2022-12-05T12:49:29.310Z,3.90
2022-12-05T12:52:12.369Z,3.90
2022-12-05T12:55:05.478Z,4.00
2022-12-05T12:57:59.944Z,4.00
2022-12-05T13:00:36.230Z,4.00
2022-12-05T13:03:12.471Z,4.00
2022-12-05T13:05:44.780Z,3.90
2022-12-05T13:08:14.175Z,4.00
2022-12-05T13:10:46.610Z,4.00
2022-12-05T13:13:38.950Z,4.00
2022-12-05T13:16:08.145Z,4.00
2022-12-05T13:18:35.738Z,3.90
2022-12-05T13:21:08.793Z,4.00
2022-12-05T13:23:45.650Z,3.90
2022-12-05T13:26:14.451Z,3.90
2022-12-05T13:28:54.557Z,3.90
2022-12-05T13:31:35.028Z,3.90
2022-12-05T13:34:01.975Z,3.90
2022-12-05T13:36:49.896Z,3.90
2022-12-05T13:39:41.461Z,3.90
2022-12-05T13:42:27.759Z,3.90
2022-12-05T13:44:58.979Z,4.00
2022-12-05T13:47:40.755Z,4.10
2022-12-05T13:50:10.090Z,4.10
2022-12-05T13:52:59.298Z,4.20
2022-12-05T13:55:35.342Z,4.20
2022-12-05T13:58:18.699Z,4.30
2022-12-05T14:00:46.152Z,4.30
2022-12-05T14:03:38.156Z,4.40
2022-12-05T14:06:07.111Z,4.50
2022-12-05T14:08:39.980Z,4.50
2022-12-05T14:11:10.312Z,4.50
2022-12-05T14:13:42.103Z,4.50
2022-12-05T14:16:24.107Z,4.50
2022-12-05T14:19:03.015Z,4.50
2022-12-05T14:21:46.376Z,4.40
2022-12-05T14:24:45.294Z,4.40
2022-12-05T14:27:42.739Z,4.40
2022-12-05T14:30:22.115Z,4.40
2022-12-05T14:32:50.886Z,4.40
2022-12-05T14:35:40.575Z,4.40
2022-12-05T14:38:18.923Z,4.40
2022-12-05T14:40:47.562Z,4.40
2022-12-05T14:43:32.813Z,4.40
2022-12-05T14:46:03.802Z,4.40
2022-12-05T14:48:36.712Z,4.30
2022-12-05T14:51:43.905Z,4.30
2022-12-05T14:54:15.974Z,4.20
2022-12-05T14:56:46.028Z,4.20
2022-12-05T14:59:34.181Z,4.20
2022-12-05T15:02:03.218Z,4.20
2022-12-05T15:04:52.789Z,4.20
2022-12-05T15:07:27.798Z,4.10
2022-12-05T15:10:20.563Z,4.10
2022-12-05T15:12:49.190Z,4.10
2022-12-05T15:15:36.407Z,4.10
2022-12-05T15:18:24.771Z,4.10
2022-12-05T15:21:13.988Z,4.00
2022-12-05T15:23:47.923Z,4.00
2022-12-05T15:26:46.779Z,4.00
2022-12-05T15:29:26.468Z,3.90
2022-12-05T15:31:54.245Z,3.80
2022-12-05T15:34:59.140Z,3.80
2022-12-05T15:37:50.565Z,3.70
2022-12-05T15:40:22.254Z,3.70
2022-12-05T15:42:51.165Z,3.70
2022-12-05T15:45:23.556Z,3.70
2022-12-05T15:48:07.116Z,3.70
2022-12-05T15:50:41.278Z,3.70
2022-12-05T15:53:19.651Z,3.70
2022-12-05T15:55:50.543Z,3.60
2022-12-05T15:58:22.403Z,3.60
2022-12-05T16:00:54.382Z,3.60
2022-12-05T16:03:37.553Z,3.60
2022-12-05T16:06:14.000Z,3.60
2022-12-05T16:08:47.979Z,3.60
2022-12-05T16:11:15.361Z,3.50
2022-12-05T16:13:49.628Z,3.60
2022-12-05T16:16:27.835Z,3.50
2022-12-05T16:18:57.431Z,3.50
2022-12-05T16:21:40.867Z,3.50
2022-12-05T16:24:21.542Z,3.50
2022-12-05T16:27:07.143Z,3.50
2022-12-05T16:29:35.628Z,3.50
2022-12-05T16:32:05.124Z,3.50
2022-12-05T16:34:33.901Z,3.50
2022-12-05T16:37:00.872Z,3.50
2022-12-05T16:39:28.971Z,3.40
2022-12-05T16:41:56.254Z,3.40
2022-12-05T16:44:47.473Z,3.40
2022-12-05T16:47:53.795Z,3.40
2022-12-05T16:50:25.592Z,3.40
2022-12-05T16:53:09.396Z,3.30
2022-12-05T16:55:41.654Z,3.30
2022-12-05T16:58:13.874Z,3.30
2022-12-05T17:00:40.647Z,3.20
2022-12-05T17:03:33.370Z,3.20
2022-12-05T17:05:59.294Z,3.20
2022-12-05T17:08:26.769Z,3.20
2022-12-05T17:10:53.787Z,3.20
2022-12-05T17:13:21.034Z,3.20
2022-12-05T17:15:48.121Z,3.20
2022-12-05T17:18:24.178Z,3.10
2022-12-05T17:20:55.280Z,3.20
2022-12-05T17:23:22.032Z,3.10
2022-12-05T17:25:54.400Z,3.10
2022-12-05T17:28:22.099Z,3.10
2022-12-05T17:30:49.717Z,3.10
2022-12-05T17:33:18.588Z,3.00
2022-12-05T17:35:45.652Z,3.00
2022-12-05T17:38:12.637Z,3.00
2022-12-05T17:40:40.418Z,2.90
2022-12-05T17:43:07.492Z,2.90
2022-12-05T17:45:34.438Z,2.80
2022-12-05T17:48:01.332Z,2.70
2022-12-05T17:50:29.346Z,2.70
2022-12-05T17:53:00.487Z,2.60
2022-12-05T17:55:29.911Z,2.60
2022-12-05T17:57:56.778Z,2.50
2022-12-05T18:00:24.664Z,2.50
2022-12-05T18:02:52.621Z,2.40
2022-12-05T18:05:19.810Z,2.40
2022-12-05T18:07:47.241Z,2.30
2022-12-05T18:10:20.214Z,2.30
2022-12-05T18:12:48.030Z,2.40
2022-12-05T18:15:15.472Z,2.40
2022-12-05T18:17:42.880Z,2.30
2022-12-05T18:20:12.833Z,2.30
2022-12-05T18:22:40.123Z,2.40
2022-12-05T18:25:07.541Z,2.40
2022-12-05T18:27:35.389Z,2.40
2022-12-05T18:30:04.912Z,2.50
2022-12-05T18:32:31.707Z,2.50
2022-12-05T18:34:59.029Z,2.50
2022-12-05T18:37:28.200Z,2.50
2022-12-05T18:39:56.370Z,2.50
2022-12-05T18:42:23.824Z,2.60
2022-12-05T18:44:50.709Z,2.60
2022-12-05T18:47:17.486Z,2.60
2022-12-05T18:49:44.374Z,2.60
2022-12-05T18:52:11.250Z,2.60
2022-12-05T18:54:38.079Z,2.60
2022-12-05T18:57:04.938Z,2.60
2022-12-05T18:59:31.807Z,2.60
2022-12-05T19:02:01.833Z,2.60
2022-12-05T19:04:29.450Z,2.50
2022-12-05T19:07:01.901Z,2.50
2022-12-05T19:09:31.258Z,2.50
2022-12-05T19:11:59.602Z,2.40
2022-12-05T19:14:29.537Z,2.40
2022-12-05T19:17:00.289Z,2.40
2022-12-05T19:19:28.053Z,2.40
2022-12-05T19:21:55.076Z,2.40
2022-12-05T19:24:24.060Z,2.40
2022-12-05T19:26:51.384Z,2.50
2022-12-05T19:29:18.633Z,2.40
2022-12-05T19:31:45.834Z,2.50
2022-12-05T19:34:13.007Z,2.50
2022-12-05T19:36:43.332Z,2.40
2022-12-05T19:39:15.838Z,2.40
2022-12-05T19:41:43.092Z,2.40
2022-12-05T19:44:10.375Z,2.40
2022-12-05T19:46:37.864Z,2.40
2022-12-05T19:49:07.113Z,2.40
2022-12-05T19:51:34.915Z,2.40
2022-12-05T19:54:03.584Z,2.40
2022-12-05T19:56:31.883Z,2.40
2022-12-05T19:58:59.769Z,2.40
2022-12-05T20:01:39.126Z,2.40
2022-12-05T20:04:08.932Z,2.50
2022-12-05T20:06:38.547Z,2.50
2022-12-05T20:09:06.869Z,2.50
2022-12-05T20:11:33.942Z,2.50
2022-12-05T20:14:02.016Z,2.50
2022-12-05T20:16:30.185Z,2.50
2022-12-05T20:18:59.396Z,2.50
2022-12-05T20:21:29.880Z,2.50
2022-12-05T20:23:58.910Z,2.60
2022-12-05T20:26:28.643Z,2.60
2022-12-05T20:29:00.448Z,2.60
2022-12-05T20:31:36.700Z,2.60
2022-12-05T20:34:04.993Z,2.60
2022-12-05T20:36:33.586Z,2.60
2022-12-05T20:39:03.761Z,2.60
2022-12-05T20:41:32.154Z,2.60
2022-12-05T20:44:02.571Z,2.60
2022-12-05T20:46:31.696Z,2.50
2022-12-05T20:48:59.122Z,2.50
2022-12-05T20:51:29.616Z,2.50
2022-12-05T20:53:58.177Z,2.60
2022-12-05T20:56:28.358Z,2.60
2022-12-05T20:58:57.927Z,2.50
2022-12-05T21:01:25.905Z,2.50
2022-12-05T21:03:54.080Z,2.50
2022-12-05T21:06:30.552Z,2.50
2022-12-05T21:09:00.021Z,2.50
2022-12-05T21:11:28.408Z,2.50
2022-12-05T21:13:56.797Z,2.50
2022-12-05T21:16:24.902Z,2.50
2022-12-05T21:18:52.949Z,2.50
2022-12-05T21:21:23.413Z,2.50
2022-12-05T21:23:59.871Z,2.50
2022-12-05T21:26:29.246Z,2.60
2022-12-05T21:28:56.929Z,2.60
2022-12-05T21:31:36.297Z,2.60
2022-12-05T21:34:06.610Z,2.50
2022-12-05T21:36:35.776Z,2.50
2022-12-05T21:39:03.423Z,2.50
2022-12-05T21:41:30.295Z,2.40
2022-12-05T21:43:57.612Z,2.40
2022-12-05T21:46:25.761Z,2.40
2022-12-05T21:48:53.276Z,2.40
2022-12-05T21:51:20.877Z,2.40
2022-12-05T21:53:48.250Z,2.30
2022-12-05T21:56:18.408Z,2.30
2022-12-05T21:58:46.711Z,2.30
2022-12-05T22:01:23.854Z,2.30
2022-12-05T22:03:59.468Z,2.30
2022-12-05T22:06:27.222Z,2.30
2022-12-05T22:08:56.249Z,2.30
2022-12-05T22:11:24.087Z,2.30
2022-12-05T22:13:51.933Z,2.30
2022-12-05T22:16:19.830Z,2.30
2022-12-05T22:18:47.274Z,2.30
2022-12-05T22:21:16.675Z,2.20
2022-12-05T22:23:43.881Z,2.20
2022-12-05T22:26:17.196Z,2.20
2022-12-05T22:28:44.901Z,2.20
2022-12-05T22:31:14.165Z,2.20
2022-12-05T22:33:41.551Z,2.20
2022-12-05T22:36:11.616Z,2.10
2022-12-05T22:38:40.677Z,2.10
2022-12-05T22:41:16.198Z,2.10
2022-12-05T22:43:44.960Z,2.10
2022-12-05T22:46:15.105Z,2.10
2022-12-05T22:48:42.070Z,2.10
2022-12-05T22:51:09.684Z,2.10
2022-12-05T22:53:38.550Z,2.10
2022-12-05T22:56:07.936Z,2.10
2022-12-05T22:58:41.605Z,2.00
2022-12-05T23:01:19.793Z,2.10
2022-12-05T23:03:49.124Z,2.10
2022-12-05T23:06:18.332Z,2.00
2022-12-05T23:08:50.074Z,2.00
2022-12-05T23:11:20.471Z,2.00
2022-12-05T23:13:48.741Z,2.00
2022-12-05T23:16:22.191Z,2.00
2022-12-05T23:18:54.633Z,2.00
2022-12-05T23:21:24.535Z,2.00
2022-12-05T23:23:54.069Z,2.00
2022-12-05T23:26:23.517Z,2.00
2022-12-05T23:28:50.643Z,2.00
2022-12-05T23:31:18.427Z,2.00
2022-12-05T23:33:49.495Z,2.00
2022-12-05T23:36:18.275Z,2.00
2022-12-05T23:38:45.193Z,2.00
2022-12-05T23:41:16.247Z,1.90
2022-12-05T23:43:43.679Z,2.00
2022-12-05T23:46:12.415Z,2.00
2022-12-05T23:48:40.120Z,1.90
2022-12-05T23:51:16.014Z,2.00
2022-12-05T23:53:44.599Z,1.90
2022-12-05T23:56:17.962Z,2.00
2022-12-05T23:58:45.764Z,2.00
